createdAt,value
2022-12-15T00:00:52.736Z,24.45
2022-12-15T00:03:38.460Z,23.77
2022-12-15T00:06:25.081Z,24.95
2022-12-15T00:09:14.292Z,15.20
2022-12-15T00:12:01.511Z,23.30
2022-12-15T00:14:47.973Z,22.80
2022-12-15T00:17:35.052Z,19.77
2022-12-15T00:20:20.720Z,31.40
2022-12-15T00:23:06.589Z,23.80
2022-12-15T00:25:52.572Z,20.35
2022-12-15T00:28:40.380Z,20.83
2022-12-15T00:31:26.671Z,21.02
2022-12-15T00:34:13.130Z,21.27
2022-12-15T00:36:59.703Z,18.33
2022-12-15T00:39:28.885Z,23.65
2022-12-15T00:41:57.562Z,21.67
2022-12-15T00:44:27.865Z,21.27
2022-12-15T00:46:55.964Z,21.48
2022-12-15T00:49:42.694Z,21.50
2022-12-15T00:52:29.580Z,20.00
2022-12-15T00:55:15.784Z,16.42
2022-12-15T00:58:02.615Z,18.13
2022-12-15T01:00:50.485Z,22.33
2022-12-15T01:03:39.472Z,20.98
2022-12-15T01:06:25.897Z,17.67
2022-12-15T01:09:11.923Z,19.27
2022-12-15T01:11:58.742Z,19.42
2022-12-15T01:14:45.658Z,18.00
2022-12-15T01:17:33.605Z,18.73
2022-12-15T01:20:19.130Z,21.67
2022-12-15T01:22:48.866Z,25.80
2022-12-15T01:25:18.899Z,25.08
2022-12-15T01:27:48.796Z,18.65
2022-12-15T01:30:20.379Z,21.77
2022-12-15T01:32:51.009Z,24.33
2022-12-15T01:35:20.451Z,22.10
2022-12-15T01:37:50.130Z,19.15
2022-12-15T01:40:38.196Z,20.33
2022-12-15T01:43:12.981Z,23.25
2022-12-15T01:46:00.690Z,25.58
2022-12-15T01:48:40.043Z,23.67
2022-12-15T01:51:15.400Z,20.23
2022-12-15T01:53:47.352Z,19.88
2022-12-15T01:56:19.324Z,22.83
2022-12-15T01:58:52.848Z,23.90
2022-12-15T02:01:22.480Z,21.05
2022-12-15T02:03:52.891Z,23.33
2022-12-15T02:06:24.593Z,20.23
2022-12-15T02:08:57.117Z,24.20
2022-12-15T02:11:59.191Z,31.23
2022-12-15T02:14:44.841Z,27.67
2022-12-15T02:17:24.563Z,26.10
2022-12-15T02:20:27.635Z,18.98
2022-12-15T02:23:19.124Z,20.52
2022-12-15T02:26:10.810Z,23.05
2022-12-15T02:28:54.590Z,22.50
2022-12-15T02:31:50.104Z,23.92
2022-12-15T02:34:26.654Z,25.02
2022-12-15T02:36:59.854Z,24.33
2022-12-15T02:39:28.748Z,24.95
2022-12-15T02:41:57.154Z,25.35
2022-12-15T02:44:30.743Z,29.25
2022-12-15T02:47:24.595Z,27.00
2022-12-15T02:50:12.582Z,28.52
2022-12-15T02:52:54.007Z,27.48
2022-12-15T02:55:29.982Z,25.65
2022-12-15T02:58:04.333Z,26.20
2022-12-15T03:00:38.597Z,27.17
2022-12-15T03:03:09.167Z,26.63
2022-12-15T03:05:37.984Z,23.98
2022-12-15T03:08:06.621Z,30.85
2022-12-15T03:10:34.822Z,22.77
2022-12-15T03:13:03.399Z,26.45
2022-12-15T03:15:35.552Z,32.90
2022-12-15T03:18:04.557Z,35.15
2022-12-15T03:20:35.087Z,29.63
2022-12-15T03:23:03.722Z,21.00
2022-12-15T03:25:32.282Z,21.20
2022-12-15T03:28:00.952Z,27.67
2022-12-15T03:30:29.912Z,22.67
2022-12-15T03:32:58.688Z,28.50
2022-12-15T03:35:27.537Z,28.25
2022-12-15T03:37:58.129Z,26.35
2022-12-15T03:40:26.370Z,30.40
2022-12-15T03:42:57.393Z,28.42
2022-12-15T03:45:27.628Z,26.25
2022-12-15T03:47:57.665Z,29.25
2022-12-15T03:50:29.154Z,26.67
2022-12-15T03:53:00.681Z,25.80
2022-12-15T03:55:29.805Z,23.10
2022-12-15T03:57:59.279Z,31.38
2022-12-15T04:00:28.569Z,35.42
2022-12-15T04:02:57.091Z,23.98
2022-12-15T04:05:28.301Z,26.00
2022-12-15T04:08:00.120Z,28.75
2022-12-15T04:10:34.624Z,25.25
2022-12-15T04:13:05.117Z,26.75
2022-12-15T04:15:34.324Z,29.77
2022-12-15T04:18:03.869Z,31.55
2022-12-15T04:20:31.349Z,22.08
2022-12-15T04:23:01.223Z,24.05
2022-12-15T04:25:47.009Z,30.92
2022-12-15T04:28:33.458Z,33.20
2022-12-15T04:31:23.010Z,26.33
2022-12-15T04:34:11.197Z,32.30
2022-12-15T04:36:59.326Z,27.38
2022-12-15T04:39:47.056Z,26.92
2022-12-15T04:42:33.731Z,26.83
2022-12-15T04:45:22.396Z,29.48
2022-12-15T04:48:08.031Z,23.27
2022-12-15T04:50:54.368Z,30.38
2022-12-15T04:53:40.495Z,25.70
2022-12-15T04:56:31.902Z,27.10
2022-12-15T04:59:17.949Z,31.88
2022-12-15T05:02:04.261Z,27.80
2022-12-15T05:04:50.020Z,30.15
2022-12-15T05:07:36.143Z,35.25
2022-12-15T05:10:22.799Z,26.92
2022-12-15T05:13:10.202Z,24.33
2022-12-15T05:15:56.242Z,26.02
2022-12-15T05:18:43.426Z,24.02
2022-12-15T05:21:29.713Z,26.60
2022-12-15T05:24:16.036Z,24.63
2022-12-15T05:27:01.586Z,27.08
2022-12-15T05:29:49.723Z,26.00
2022-12-15T05:32:18.843Z,26.08
2022-12-15T05:34:47.334Z,25.67
2022-12-15T05:37:16.533Z,28.27
2022-12-15T05:39:45.261Z,30.52
2022-12-15T05:42:14.027Z,27.15
2022-12-15T05:44:44.349Z,33.33
2022-12-15T05:47:13.476Z,28.15
2022-12-15T05:49:42.661Z,34.17
2022-12-15T05:52:11.892Z,23.70
2022-12-15T05:54:40.506Z,28.00
2022-12-15T05:57:08.939Z,29.77
2022-12-15T05:59:37.685Z,29.75
2022-12-15T06:02:08.519Z,33.13
2022-12-15T06:04:37.923Z,29.65
2022-12-15T06:07:06.976Z,25.25
2022-12-15T06:09:36.181Z,37.28
2022-12-15T06:12:05.351Z,28.63
2022-12-15T06:14:34.734Z,25.83
2022-12-15T06:17:04.284Z,28.85
2022-12-15T06:19:34.725Z,27.52
2022-12-15T06:22:05.673Z,25.17
2022-12-15T06:24:34.139Z,28.67
2022-12-15T06:27:02.827Z,28.50
2022-12-15T06:29:31.790Z,27.08
2022-12-15T06:32:00.005Z,21.08
2022-12-15T06:34:29.183Z,29.55
2022-12-15T06:36:59.548Z,32.33
2022-12-15T06:39:28.900Z,26.90
2022-12-15T06:41:57.390Z,25.80
2022-12-15T06:44:26.094Z,24.88
2022-12-15T06:46:54.775Z,30.23
2022-12-15T06:49:23.295Z,24.08
2022-12-15T06:51:51.885Z,32.08
2022-12-15T06:54:21.836Z,28.23
2022-12-15T06:56:50.281Z,30.58
2022-12-15T06:59:19.085Z,27.50
2022-12-15T07:01:47.809Z,26.67
2022-12-15T07:04:16.674Z,23.55
2022-12-15T07:06:46.578Z,25.38
2022-12-15T07:09:20.095Z,31.33
2022-12-15T07:11:51.743Z,25.80
2022-12-15T07:14:20.347Z,26.42
2022-12-15T07:16:48.939Z,36.67
2022-12-15T07:19:20.982Z,26.80
2022-12-15T07:21:53.055Z,23.08
2022-12-15T07:24:23.459Z,30.67
2022-12-15T07:26:53.713Z,32.80
2022-12-15T07:29:23.715Z,32.05
2022-12-15T07:31:52.354Z,28.85
2022-12-15T07:34:21.964Z,22.63
2022-12-15T07:36:52.835Z,23.25
2022-12-15T07:39:22.384Z,32.53
2022-12-15T07:41:53.398Z,32.55
2022-12-15T07:44:23.763Z,22.48
2022-12-15T07:46:53.298Z,28.95
2022-12-15T07:49:23.715Z,30.92
2022-12-15T07:51:52.815Z,29.10
2022-12-15T07:54:22.728Z,27.80
2022-12-15T07:56:54.077Z,30.15
2022-12-15T07:59:23.786Z,25.80
2022-12-15T08:01:54.065Z,24.67
2022-12-15T08:04:22.498Z,23.63
2022-12-15T08:06:52.005Z,30.75
2022-12-15T08:09:20.486Z,21.98
2022-12-15T08:11:49.286Z,21.67
2022-12-15T08:14:21.862Z,32.08
2022-12-15T08:16:50.939Z,26.67
2022-12-15T08:19:20.154Z,25.58
2022-12-15T08:21:49.497Z,20.75
2022-12-15T08:24:19.728Z,25.48
2022-12-15T08:26:50.014Z,24.95
2022-12-15T08:32:08.997Z,25.27
2022-12-15T08:34:37.792Z,25.38
2022-12-15T08:37:06.375Z,24.17
2022-12-15T08:39:34.872Z,30.90
2022-12-15T08:42:03.159Z,26.48
2022-12-15T08:44:33.063Z,24.40
2022-12-15T08:47:01.584Z,27.92
2022-12-15T08:49:31.155Z,27.65
2022-12-15T08:51:59.663Z,34.22
2022-12-15T08:54:28.038Z,22.98
2022-12-15T08:56:57.421Z,27.30
2022-12-15T08:59:26.436Z,25.15
2022-12-15T09:01:56.384Z,23.95
2022-12-15T09:04:25.394Z,26.70
2022-12-15T09:06:53.948Z,27.00
2022-12-15T09:09:23.230Z,31.27
2022-12-15T09:11:51.772Z,28.67
2022-12-15T09:14:27.073Z,21.65
2022-12-15T09:16:58.890Z,27.30
2022-12-15T09:19:28.274Z,26.92
2022-12-15T09:21:56.732Z,29.77
2022-12-15T09:24:33.927Z,28.67
2022-12-15T09:27:04.287Z,23.77
2022-12-15T09:29:32.920Z,24.70
2022-12-15T09:32:06.583Z,27.52
2022-12-15T09:34:38.885Z,25.80
2022-12-15T09:37:08.346Z,33.20
2022-12-15T09:39:38.056Z,28.80
2022-12-15T09:42:07.484Z,27.63
2022-12-15T09:44:36.851Z,30.88
2022-12-15T09:47:20.855Z,29.58
2022-12-15T09:49:59.850Z,27.83
2022-12-15T09:52:32.004Z,26.50
2022-12-15T09:55:02.972Z,26.77
2022-12-15T09:57:45.338Z,25.27
2022-12-15T10:00:21.911Z,30.35
2022-12-15T10:06:17.711Z,30.83
2022-12-15T10:08:52.205Z,27.90
2022-12-15T10:11:26.551Z,30.15
2022-12-15T10:14:02.840Z,31.02
2022-12-15T10:16:37.858Z,28.88
2022-12-15T10:19:13.373Z,33.20
2022-12-15T10:21:44.041Z,24.48
2022-12-15T10:24:44.570Z,33.50
2022-12-15T10:27:23.696Z,21.55
2022-12-15T10:30:02.089Z,28.60
2022-12-15T10:32:44.156Z,30.05
2022-12-15T10:35:22.683Z,27.02
2022-12-15T10:37:53.455Z,25.15
2022-12-15T10:40:50.467Z,41.33
2022-12-15T10:43:38.378Z,32.28
2022-12-15T10:46:16.074Z,33.35
2022-12-15T10:48:48.439Z,29.35
2022-12-15T10:51:23.723Z,34.97
2022-12-15T10:53:55.805Z,35.45
2022-12-15T10:59:25.915Z,31.85
2022-12-15T11:01:54.828Z,30.73
2022-12-15T11:04:28.759Z,36.00
2022-12-15T11:07:01.922Z,37.30
2022-12-15T11:09:36.640Z,36.22
2022-12-15T11:12:35.902Z,37.20
2022-12-15T11:15:04.724Z,32.17
2022-12-15T11:17:43.151Z,34.85
2022-12-15T11:20:22.263Z,31.75
2022-12-15T11:22:54.845Z,30.25
2022-12-15T11:25:33.206Z,33.42
2022-12-15T11:28:07.274Z,32.65
2022-12-15T11:30:40.366Z,35.80
2022-12-15T11:33:11.077Z,24.52
2022-12-15T11:35:58.823Z,37.22
2022-12-15T11:38:36.029Z,33.50
2022-12-15T11:41:17.395Z,24.35
2022-12-15T11:44:06.446Z,32.17
2022-12-15T11:46:43.276Z,44.10
2022-12-15T11:49:50.468Z,33.60
2022-12-15T11:52:46.861Z,29.38
2022-12-15T11:55:29.718Z,26.55
2022-12-15T11:58:39.331Z,37.33
2022-12-15T12:01:20.233Z,34.03
2022-12-15T12:04:02.186Z,33.60
2022-12-15T12:06:37.668Z,30.23
2022-12-15T12:09:28.065Z,39.17
2022-12-15T12:12:03.424Z,24.10
2022-12-15T12:14:43.408Z,30.77
2022-12-15T12:17:21.776Z,24.25
2022-12-15T12:19:55.484Z,35.40
2022-12-15T12:22:30.143Z,23.23
2022-12-15T12:25:02.630Z,29.88
2022-12-15T12:27:39.917Z,28.35
2022-12-15T12:30:15.379Z,28.63
2022-12-15T12:32:54.441Z,24.63
2022-12-15T12:35:33.468Z,25.75
2022-12-15T12:38:04.510Z,24.05
2022-12-15T12:40:46.920Z,26.45
2022-12-15T12:43:32.424Z,24.17
2022-12-15T12:46:07.757Z,29.40
2022-12-15T12:48:41.801Z,29.00
2022-12-15T12:51:27.528Z,27.15
2022-12-15T12:53:57.958Z,26.33
2022-12-15T12:56:37.308Z,23.80
2022-12-15T12:59:26.981Z,22.42
2022-12-15T13:01:58.501Z,22.73
2022-12-15T13:04:43.061Z,29.83
2022-12-15T13:07:30.338Z,28.33
2022-12-15T13:10:14.725Z,23.25
2022-12-15T13:12:52.860Z,19.70
2022-12-15T13:15:37.741Z,20.05
2022-12-15T13:18:16.727Z,26.67
2022-12-15T13:20:50.533Z,27.98
2022-12-15T13:23:38.806Z,26.63
2022-12-15T13:26:16.150Z,28.70
2022-12-15T13:28:52.564Z,24.63
2022-12-15T13:31:35.295Z,27.13
2022-12-15T13:34:29.355Z,30.02
2022-12-15T13:37:01.812Z,25.52
2022-12-15T13:39:59.843Z,27.38
2022-12-15T13:42:51.388Z,26.33
2022-12-15T13:45:51.211Z,26.58
2022-12-15T13:48:36.895Z,24.35
2022-12-15T13:51:24.788Z,24.52
2022-12-15T13:54:01.225Z,24.77
2022-12-15T13:56:53.173Z,24.77
2022-12-15T13:59:29.953Z,21.23
2022-12-15T14:01:58.612Z,26.00
2022-12-15T14:04:28.832Z,26.63
2022-12-15T14:06:59.975Z,23.45
2022-12-15T14:09:34.807Z,25.20
2022-12-15T14:12:04.986Z,24.35
2022-12-15T14:14:37.719Z,25.42
2022-12-15T14:17:10.432Z,21.08
2022-12-15T14:19:42.110Z,21.63
2022-12-15T14:22:28.673Z,24.42
2022-12-15T14:25:06.075Z,25.13
2022-12-15T14:27:38.161Z,30.40
2022-12-15T14:30:30.061Z,25.90
2022-12-15T14:33:04.898Z,30.23
2022-12-15T14:35:38.487Z,34.40
2022-12-15T14:38:10.146Z,30.65
2022-12-15T14:40:42.431Z,24.98
2022-12-15T14:43:24.311Z,27.15
2022-12-15T14:45:58.861Z,23.48
2022-12-15T14:48:42.792Z,25.10
2022-12-15T14:51:14.532Z,29.63
2022-12-15T14:53:45.153Z,20.80
2022-12-15T14:56:30.644Z,25.92
2022-12-15T14:59:04.125Z,26.45
2022-12-15T15:01:42.881Z,25.25
2022-12-15T15:03:10.011Z,33.08
2022-12-15T15:04:26.084Z,26.27
2022-12-15T15:06:58.943Z,21.67
2022-12-15T15:09:29.736Z,26.83
2022-12-15T15:12:07.006Z,23.67
2022-12-15T15:14:40.803Z,21.10
2022-12-15T15:17:19.082Z,22.45
2022-12-15T15:19:52.924Z,24.27
2022-12-15T15:25:36.205Z,21.58
2022-12-15T15:28:25.387Z,25.83
2022-12-15T15:30:57.878Z,22.15
2022-12-15T15:33:28.558Z,22.23
2022-12-15T15:35:59.474Z,19.23
2022-12-15T15:38:33.535Z,27.42
2022-12-15T15:41:04.503Z,25.35
2022-12-15T15:43:34.846Z,24.02
2022-12-15T15:46:09.334Z,22.15
2022-12-15T15:48:44.620Z,29.90
2022-12-15T15:51:15.244Z,23.88
2022-12-15T15:53:44.183Z,25.65
2022-12-15T15:56:21.303Z,24.55
2022-12-15T15:58:51.864Z,25.77
2022-12-15T16:01:21.301Z,24.33
2022-12-15T16:03:50.695Z,20.10
2022-12-15T16:06:21.271Z,30.67
2022-12-15T16:08:54.076Z,22.85
2022-12-15T16:11:26.222Z,23.73
2022-12-15T16:13:56.989Z,23.52
2022-12-15T16:16:30.477Z,23.83
2022-12-15T16:18:59.435Z,23.45
2022-12-15T16:21:29.413Z,29.58
2022-12-15T16:24:00.431Z,22.42
2022-12-15T16:26:31.842Z,24.42
2022-12-15T16:29:01.772Z,21.42
2022-12-15T16:31:40.649Z,22.35
2022-12-15T16:34:10.380Z,25.17
2022-12-15T16:36:39.262Z,27.42
2022-12-15T16:39:22.760Z,31.65
2022-12-15T16:41:51.832Z,24.60
2022-12-15T16:44:23.948Z,29.35
2022-12-15T16:46:55.263Z,27.10
2022-12-15T16:49:40.023Z,24.10
2022-12-15T16:52:19.946Z,23.27
2022-12-15T16:54:52.184Z,22.45
2022-12-15T16:57:21.022Z,24.92
2022-12-15T16:59:51.525Z,23.45
2022-12-15T17:02:28.180Z,26.35
2022-12-15T17:04:57.671Z,27.33
2022-12-15T17:07:28.215Z,25.52
2022-12-15T17:09:57.749Z,23.52
2022-12-15T17:12:26.351Z,26.85
2022-12-15T17:14:58.916Z,29.10
2022-12-15T17:17:29.772Z,23.90
2022-12-15T17:20:28.725Z,32.20
2022-12-15T17:22:49.567Z,27.50
2022-12-15T17:25:37.556Z,24.63
2022-12-15T17:28:18.368Z,32.60
2022-12-15T17:30:50.773Z,23.38
2022-12-15T17:33:21.392Z,33.80
2022-12-15T17:35:52.623Z,29.13
2022-12-15T17:38:23.039Z,21.50
2022-12-15T17:40:53.382Z,31.77
2022-12-15T17:43:24.086Z,21.52
2022-12-15T17:45:56.397Z,20.90
2022-12-15T17:48:26.038Z,25.63
2022-12-15T17:50:55.402Z,28.30
2022-12-15T17:53:27.753Z,21.40
2022-12-15T17:55:57.746Z,23.15
2022-12-15T17:58:28.692Z,25.20
2022-12-15T18:01:00.189Z,23.90
2022-12-15T18:03:29.869Z,24.60
2022-12-15T18:05:59.737Z,21.77
2022-12-15T18:08:29.992Z,27.27
2022-12-15T18:11:00.186Z,18.30
2022-12-15T18:13:35.414Z,24.10
2022-12-15T18:16:07.648Z,28.45
2022-12-15T18:18:37.626Z,26.95
2022-12-15T18:21:17.121Z,21.05
2022-12-15T18:23:47.869Z,21.02
2022-12-15T18:26:17.091Z,23.33
2022-12-15T18:28:45.727Z,17.75
2022-12-15T18:31:22.517Z,23.58
2022-12-15T18:33:51.807Z,22.48
2022-12-15T18:36:21.151Z,24.90
2022-12-15T18:38:50.983Z,19.63
2022-12-15T18:41:21.912Z,21.42
2022-12-15T18:43:51.020Z,20.98
2022-12-15T18:46:22.848Z,21.17
2022-12-15T18:48:52.288Z,23.23
2022-12-15T18:51:24.677Z,22.65
2022-12-15T18:53:54.182Z,30.20
2022-12-15T18:56:24.621Z,21.95
2022-12-15T18:58:55.134Z,21.60
2022-12-15T19:01:29.136Z,28.70
2022-12-15T19:03:58.032Z,18.17
2022-12-15T19:06:35.429Z,27.55
2022-12-15T19:09:07.581Z,20.90
2022-12-15T19:11:37.634Z,22.27
2022-12-15T19:14:32.599Z,21.30
2022-12-15T19:17:19.719Z,20.15
2022-12-15T19:20:05.391Z,27.00
2022-12-15T19:22:34.115Z,23.95
2022-12-15T19:25:06.074Z,26.45
2022-12-15T19:27:34.555Z,20.27
2022-12-15T19:30:03.328Z,18.23
2022-12-15T19:32:33.886Z,21.15
2022-12-15T19:35:02.763Z,22.42
2022-12-15T19:37:33.901Z,21.90
2022-12-15T19:40:04.023Z,22.85
2022-12-15T19:42:37.425Z,23.55
2022-12-15T19:45:16.953Z,19.50
2022-12-15T19:47:47.791Z,22.88
2022-12-15T19:50:18.316Z,22.45
2022-12-15T19:52:49.468Z,18.52
2022-12-15T19:55:19.389Z,21.33
2022-12-15T19:57:48.216Z,19.83
2022-12-15T20:00:21.504Z,15.15
2022-12-15T20:02:53.145Z,20.55
2022-12-15T20:05:22.847Z,16.52
2022-12-15T20:07:52.683Z,16.90
2022-12-15T20:10:27.862Z,16.00
2022-12-15T20:13:00.984Z,16.33
2022-12-15T20:15:29.833Z,18.42
2022-12-15T20:18:01.863Z,16.05
2022-12-15T20:20:31.698Z,17.98
2022-12-15T20:23:05.697Z,15.75
2022-12-15T20:25:37.669Z,12.73
2022-12-15T20:28:08.910Z,10.07
2022-12-15T20:30:38.971Z,14.77
2022-12-15T20:33:09.299Z,16.58
2022-12-15T20:35:38.846Z,14.10
2022-12-15T20:38:22.283Z,15.95
2022-12-15T20:40:51.362Z,14.15
2022-12-15T20:43:24.467Z,17.83
2022-12-15T20:46:03.683Z,10.63
2022-12-15T20:48:35.882Z,10.95
2022-12-15T20:51:09.266Z,13.70
2022-12-15T20:56:08.499Z,18.20
2022-12-15T20:58:40.152Z,12.55
2022-12-15T21:01:19.103Z,16.52
2022-12-15T21:03:51.845Z,12.18
2022-12-15T21:06:21.590Z,13.43
2022-12-15T21:08:51.856Z,19.42
2022-12-15T21:11:24.718Z,14.23
2022-12-15T21:13:56.671Z,15.70
2022-12-15T21:16:30.630Z,12.00
2022-12-15T21:19:19.728Z,13.98
2022-12-15T21:21:52.802Z,13.48
2022-12-15T21:24:27.246Z,16.17
2022-12-15T21:26:56.645Z,16.15
2022-12-15T21:29:27.821Z,19.90
2022-12-15T21:31:56.681Z,11.32
2022-12-15T21:34:26.737Z,17.13
2022-12-15T21:36:55.932Z,18.92
2022-12-15T21:39:29.889Z,15.73
2022-12-15T21:42:01.073Z,17.25
2022-12-15T21:44:30.033Z,14.73
2022-12-15T21:46:59.567Z,18.20
2022-12-15T21:49:29.896Z,19.02
2022-12-15T21:52:00.317Z,16.15
2022-12-15T21:54:32.405Z,17.08
2022-12-15T21:57:02.931Z,17.17
2022-12-15T21:59:33.869Z,16.65
2022-12-15T22:02:03.098Z,15.63
2022-12-15T22:04:35.250Z,19.38
2022-12-15T22:07:04.197Z,16.27
2022-12-15T22:09:34.265Z,19.83
2022-12-15T22:12:02.719Z,16.55
2022-12-15T22:14:35.032Z,18.17
2022-12-15T22:17:15.687Z,18.75
2022-12-15T22:19:46.528Z,14.30
2022-12-15T22:22:15.964Z,20.40
2022-12-15T22:24:44.523Z,14.32
2022-12-15T22:27:20.384Z,15.48
2022-12-15T22:29:49.378Z,22.52
2022-12-15T22:32:18.896Z,20.38
2022-12-15T22:34:49.229Z,19.02
2022-12-15T22:37:17.817Z,16.25
2022-12-15T22:39:46.442Z,16.77
2022-12-15T22:42:22.749Z,22.45
2022-12-15T22:45:00.030Z,18.85
2022-12-15T22:47:28.893Z,21.65
2022-12-15T22:49:58.603Z,20.65
2022-12-15T22:52:26.850Z,21.33
2022-12-15T22:54:57.046Z,15.77
2022-12-15T22:57:28.113Z,18.40
2022-12-15T23:00:01.023Z,19.42
2022-12-15T23:02:32.609Z,22.33
2022-12-15T23:05:03.800Z,15.93
2022-12-15T23:07:32.817Z,20.75
2022-12-15T23:10:19.092Z,17.92
2022-12-15T23:12:48.027Z,27.05
2022-12-15T23:15:34.367Z,19.02
2022-12-15T23:18:03.057Z,20.10
2022-12-15T23:20:33.085Z,18.83
2022-12-15T23:23:01.465Z,16.48
2022-12-15T23:25:30.101Z,15.70
2022-12-15T23:27:58.691Z,18.38
2022-12-15T23:30:27.647Z,19.92
2022-12-15T23:32:56.353Z,18.65
2022-12-15T23:35:25.270Z,18.83
2022-12-15T23:37:55.549Z,12.85
2022-12-15T23:40:24.046Z,14.18
2022-12-15T23:42:53.966Z,15.98
2022-12-15T23:45:24.084Z,19.15
2022-12-15T23:47:52.559Z,16.13
2022-12-15T23:50:22.783Z,18.42
2022-12-15T23:52:51.925Z,16.40
2022-12-15T23:55:22.728Z,18.27
2022-12-15T23:57:51.002Z,17.50
